createdAt,value
2018-07-07T00:00:20.817Z,0.00
2018-07-07T00:01:20.805Z,0.00
2018-07-07T00:02:20.805Z,0.00
2018-07-07T00:03:20.778Z,0.00
2018-07-07T00:04:20.787Z,0.00
2018-07-07T00:05:20.757Z,0.00
2018-07-07T00:06:20.752Z,0.00
2018-07-07T00:07:20.751Z,0.00
2018-07-07T00:08:20.724Z,0.00
2018-07-07T00:09:20.718Z,0.00
2018-07-07T00:10:20.719Z,0.00
2018-07-07T00:11:20.694Z,0.00
2018-07-07T00:12:20.695Z,0.00
2018-07-07T00:13:20.674Z,0.00
2018-07-07T00:14:20.663Z,0.00
2018-07-07T00:15:20.651Z,0.00
2018-07-07T00:16:20.659Z,0.00
2018-07-07T00:17:20.645Z,0.00
2018-07-07T00:18:20.612Z,0.00
2018-07-07T00:19:20.605Z,0.00
2018-07-07T00:20:20.593Z,0.00
2018-07-07T00:21:20.586Z,0.00
2018-07-07T00:22:20.588Z,0.00
2018-07-07T00:23:20.568Z,0.00
2018-07-07T00:24:20.556Z,0.00
2018-07-07T00:25:20.537Z,0.00
2018-07-07T00:26:20.530Z,0.00
2018-07-07T00:27:20.518Z,0.00
2018-07-07T00:28:20.545Z,0.00
2018-07-07T00:29:20.499Z,0.00
2018-07-07T00:30:20.483Z,0.00
2018-07-07T00:31:20.469Z,0.00
2018-07-07T00:32:20.461Z,0.00
2018-07-07T00:33:20.474Z,0.00
2018-07-07T00:34:20.459Z,0.00
2018-07-07T00:35:20.429Z,0.00
2018-07-07T00:36:20.419Z,0.00
2018-07-07T00:37:20.404Z,0.00
2018-07-07T00:38:20.400Z,0.00
2018-07-07T00:39:20.395Z,0.00
2018-07-07T00:40:21.079Z,0.00
2018-07-07T00:41:20.357Z,0.00
2018-07-07T00:42:20.351Z,0.00
2018-07-07T00:43:20.335Z,0.00
2018-07-07T00:44:20.357Z,0.00
2018-07-07T00:45:20.313Z,0.00
2018-07-07T00:46:20.322Z,0.00
2018-07-07T00:47:20.294Z,0.00
2018-07-07T00:48:20.288Z,0.00
2018-07-07T00:49:20.279Z,0.00
2018-07-07T00:50:20.264Z,0.00
2018-07-07T00:51:20.251Z,0.00
2018-07-07T00:52:20.257Z,0.00
2018-07-07T00:53:20.226Z,0.00
2018-07-07T00:54:20.221Z,0.00
2018-07-07T00:55:20.236Z,0.00
2018-07-07T00:56:20.199Z,0.00
2018-07-07T00:57:20.179Z,0.00
2018-07-07T00:58:20.194Z,0.00
2018-07-07T00:59:20.154Z,0.00
2018-07-07T01:00:20.152Z,0.00
2018-07-07T01:01:20.154Z,0.00
2018-07-07T01:02:20.124Z,0.00
2018-07-07T01:03:20.115Z,0.00
2018-07-07T01:04:20.116Z,0.00
2018-07-07T01:05:20.093Z,0.00
2018-07-07T01:06:20.091Z,0.00
2018-07-07T01:07:20.079Z,0.00
2018-07-07T01:08:20.057Z,0.00
2018-07-07T01:09:20.076Z,0.00
2018-07-07T01:10:20.044Z,0.00
2018-07-07T01:11:20.020Z,0.00
2018-07-07T01:12:20.021Z,0.00
2018-07-07T01:13:19.993Z,0.00
2018-07-07T01:14:19.986Z,0.00
2018-07-07T01:15:19.976Z,0.00
2018-07-07T01:16:19.996Z,0.00
2018-07-07T01:17:19.955Z,0.00
2018-07-07T01:18:19.941Z,0.00
2018-07-07T01:19:19.928Z,0.00
2018-07-07T01:20:19.915Z,0.00
2018-07-07T01:21:19.905Z,0.00
2018-07-07T01:22:19.929Z,0.00
2018-07-07T01:23:19.890Z,0.00
2018-07-07T01:24:19.872Z,0.00
2018-07-07T01:25:19.860Z,0.00
2018-07-07T01:26:19.848Z,0.00
2018-07-07T01:27:19.859Z,0.00
2018-07-07T01:28:19.843Z,0.00
2018-07-07T01:29:19.812Z,0.00
2018-07-07T01:30:19.802Z,0.00
2018-07-07T01:31:19.793Z,0.00
2018-07-07T01:32:19.781Z,0.00
2018-07-07T01:33:19.784Z,0.00
2018-07-07T01:34:19.765Z,0.00
2018-07-07T01:35:19.743Z,0.00
2018-07-07T01:36:19.732Z,0.00
2018-07-07T01:37:19.723Z,0.00
2018-07-07T01:38:19.738Z,0.00
2018-07-07T01:39:19.697Z,0.00
2018-07-07T01:40:19.707Z,0.00
2018-07-07T01:41:19.680Z,0.00
2018-07-07T01:42:19.667Z,0.00
2018-07-07T01:43:19.658Z,0.00
2018-07-07T01:44:19.661Z,0.00
2018-07-07T01:45:19.637Z,0.00
2018-07-07T01:46:19.640Z,0.00
2018-07-07T01:47:19.607Z,0.00
2018-07-07T01:48:19.605Z,0.00
2018-07-07T01:49:19.619Z,0.00
2018-07-07T01:50:19.575Z,0.00
2018-07-07T01:51:19.568Z,0.00
2018-07-07T01:52:19.567Z,0.00
2018-07-07T01:53:19.546Z,0.00
2018-07-07T01:54:19.525Z,0.00
2018-07-07T01:55:19.532Z,0.00
2018-07-07T01:56:19.508Z,0.00
2018-07-07T01:57:19.500Z,0.00
2018-07-07T01:58:19.496Z,0.00
2018-07-07T01:59:19.471Z,0.00
2018-07-07T02:00:19.490Z,0.00
2018-07-07T02:01:19.447Z,0.00
2018-07-07T02:02:19.443Z,0.00
2018-07-07T02:03:20.030Z,0.00
2018-07-07T02:04:19.437Z,0.00
2018-07-07T02:05:19.398Z,0.00
2018-07-07T02:06:19.405Z,0.00
2018-07-07T02:07:19.379Z,0.00
2018-07-07T02:08:19.368Z,0.00
2018-07-07T02:09:19.362Z,0.00
2018-07-07T02:10:19.360Z,0.00
2018-07-07T02:11:19.357Z,0.00
2018-07-07T02:12:19.325Z,0.00
2018-07-07T02:13:19.307Z,0.00
2018-07-07T02:14:19.299Z,0.00
2018-07-07T02:15:19.288Z,0.00
2018-07-07T02:16:19.291Z,0.00
2018-07-07T02:17:19.284Z,0.00
2018-07-07T02:18:19.255Z,0.00
2018-07-07T02:19:19.241Z,0.00
2018-07-07T02:20:19.244Z,0.00
2018-07-07T02:21:19.222Z,0.00
2018-07-07T02:22:19.222Z,0.00
2018-07-07T02:23:19.205Z,4.00
2018-07-07T02:24:19.228Z,0.00
2018-07-07T02:25:19.174Z,0.00
2018-07-07T02:26:19.160Z,4.00
2018-07-07T02:27:19.147Z,4.00
2018-07-07T02:28:19.187Z,0.00
2018-07-07T02:29:19.133Z,4.00
2018-07-07T02:30:19.119Z,4.00
2018-07-07T02:31:19.104Z,4.00
2018-07-07T02:32:19.096Z,4.00
2018-07-07T02:33:19.085Z,4.00
2018-07-07T02:34:19.088Z,4.00
2018-07-07T02:35:19.059Z,8.00
2018-07-07T02:36:19.077Z,8.00
2018-07-07T02:37:19.031Z,8.00
2018-07-07T02:38:19.016Z,8.00
2018-07-07T02:39:19.039Z,8.00
2018-07-07T02:40:19.013Z,12.00
2018-07-07T02:41:18.988Z,12.00
2018-07-07T02:42:18.977Z,16.00
2018-07-07T02:43:18.962Z,16.00
2018-07-07T02:44:18.955Z,20.00
2018-07-07T02:45:18.954Z,20.00
2018-07-07T02:46:19.033Z,24.00
2018-07-07T02:47:18.920Z,24.00
2018-07-07T02:48:18.906Z,28.00
2018-07-07T02:49:18.903Z,32.00
2018-07-07T02:50:18.913Z,36.00
2018-07-07T02:51:18.877Z,40.00
2018-07-07T02:52:18.885Z,40.00
2018-07-07T02:53:18.854Z,44.00
2018-07-07T02:54:18.843Z,52.00
2018-07-07T02:55:18.828Z,52.00
2018-07-07T02:56:18.835Z,56.00
2018-07-07T02:57:18.802Z,64.00
2018-07-07T02:58:18.811Z,68.00
2018-07-07T02:59:18.784Z,76.00
2018-07-07T03:00:18.776Z,80.00
2018-07-07T03:01:18.781Z,88.00
2018-07-07T03:02:18.755Z,92.00
2018-07-07T03:03:18.860Z,100.00
2018-07-07T03:04:18.750Z,108.00
2018-07-07T03:05:18.719Z,116.00
2018-07-07T03:06:18.710Z,124.00
2018-07-07T03:07:18.710Z,132.00
2018-07-07T03:08:18.688Z,140.00
2018-07-07T03:09:18.686Z,152.00
2018-07-07T03:10:18.678Z,156.00
2018-07-07T03:11:18.655Z,168.00
2018-07-07T03:12:18.665Z,176.00
2018-07-07T03:13:18.657Z,184.00
2018-07-07T03:14:18.625Z,196.00
2018-07-07T03:15:18.613Z,208.00
2018-07-07T03:16:18.612Z,216.00
2018-07-07T03:17:18.594Z,228.00
2018-07-07T03:18:18.585Z,236.00
2018-07-07T03:19:18.568Z,248.00
2018-07-07T03:20:18.557Z,260.00
2018-07-07T03:21:18.544Z,268.00
2018-07-07T03:22:18.565Z,280.00
2018-07-07T03:23:18.547Z,292.00
2018-07-07T03:24:18.516Z,304.00
2018-07-07T03:25:18.505Z,312.00
2018-07-07T03:26:18.495Z,320.00
2018-07-07T03:27:18.481Z,332.00
2018-07-07T03:28:18.487Z,344.00
2018-07-07T03:29:19.552Z,356.00
2018-07-07T03:30:18.614Z,368.00
2018-07-07T03:31:18.436Z,376.00
2018-07-07T03:32:18.431Z,388.00
2018-07-07T03:33:18.435Z,400.00
2018-07-07T03:34:18.426Z,408.00
2018-07-07T03:35:18.404Z,420.00
2018-07-07T03:36:18.384Z,428.00
2018-07-07T03:37:18.372Z,440.00
2018-07-07T03:38:18.358Z,448.00
2018-07-07T03:39:18.367Z,460.00
2018-07-07T03:40:18.361Z,472.00
2018-07-07T03:41:18.330Z,480.00
2018-07-07T03:42:18.380Z,492.00
2018-07-07T03:43:18.309Z,500.00
2018-07-07T03:44:18.296Z,508.00
2018-07-07T03:45:18.312Z,520.00
2018-07-07T03:46:18.278Z,528.00
2018-07-07T03:47:18.268Z,536.00
2018-07-07T03:48:18.249Z,548.00
2018-07-07T03:49:18.297Z,556.00
2018-07-07T03:50:18.232Z,564.00
2018-07-07T03:51:18.275Z,572.00
2018-07-07T03:52:18.213Z,584.00
2018-07-07T03:53:18.190Z,592.00
2018-07-07T03:54:18.185Z,600.00
2018-07-07T03:55:18.181Z,608.00
2018-07-07T03:56:18.162Z,616.00
2018-07-07T03:57:18.189Z,624.00
2018-07-07T03:58:18.154Z,632.00
2018-07-07T03:59:18.131Z,636.00
2018-07-07T04:00:18.122Z,648.00
2018-07-07T04:01:18.108Z,652.00
2018-07-07T04:02:18.104Z,664.00
2018-07-07T04:03:18.116Z,672.00
2018-07-07T04:04:18.075Z,676.00
2018-07-07T04:05:18.064Z,688.00
2018-07-07T04:06:18.059Z,696.00
2018-07-07T04:07:18.054Z,704.00
2018-07-07T04:08:18.058Z,712.00
2018-07-07T04:09:18.038Z,724.00
2018-07-07T04:10:18.010Z,732.00
2018-07-07T04:11:18.004Z,740.00
2018-07-07T04:12:17.992Z,752.00
2018-07-07T04:13:18.006Z,760.00
2018-07-07T04:14:17.962Z,776.00
2018-07-07T04:15:17.972Z,784.00
2018-07-07T04:16:17.947Z,792.00
2018-07-07T04:17:17.930Z,800.00
2018-07-07T04:18:17.923Z,812.00
2018-07-07T04:19:17.929Z,816.00
2018-07-07T04:20:17.901Z,824.00
2018-07-07T04:21:17.902Z,836.00
2018-07-07T04:22:17.886Z,844.00
2018-07-07T04:23:17.871Z,852.00
2018-07-07T04:24:17.893Z,852.00
2018-07-07T04:25:17.846Z,856.00
2018-07-07T04:26:17.832Z,856.00
2018-07-07T04:27:17.827Z,856.00
2018-07-07T04:28:17.827Z,848.00
2018-07-07T04:29:17.794Z,840.00
2018-07-07T04:30:17.798Z,836.00
2018-07-07T04:31:17.783Z,828.00
2018-07-07T04:32:17.764Z,828.00
2018-07-07T04:33:17.756Z,836.00
2018-07-07T04:34:17.766Z,840.00
2018-07-07T04:35:17.861Z,844.00
2018-07-07T04:36:17.725Z,844.00
2018-07-07T04:37:17.709Z,852.00
2018-07-07T04:38:17.705Z,852.00
2018-07-07T04:39:17.729Z,864.00
2018-07-07T04:40:17.702Z,864.00
2018-07-07T04:41:17.675Z,872.00
2018-07-07T04:42:17.660Z,876.00
2018-07-07T04:43:17.651Z,880.00
2018-07-07T04:44:17.636Z,892.00
2018-07-07T04:45:17.625Z,896.00
2018-07-07T04:46:17.648Z,900.00
2018-07-07T04:47:17.614Z,908.00
2018-07-07T04:48:17.599Z,908.00
2018-07-07T04:49:17.582Z,916.00
2018-07-07T04:50:17.571Z,912.00
2018-07-07T04:51:17.556Z,920.00
2018-07-07T04:52:17.610Z,920.00
2018-07-07T04:53:17.538Z,924.00
2018-07-07T04:54:17.530Z,928.00
2018-07-07T04:55:17.518Z,936.00
2018-07-07T04:56:17.506Z,944.00
2018-07-07T04:57:17.497Z,948.00
2018-07-07T04:58:17.509Z,952.00
2018-07-07T04:59:17.474Z,964.00
2018-07-07T05:00:17.464Z,972.00
2018-07-07T05:01:17.444Z,980.00
2018-07-07T05:02:17.441Z,980.00
2018-07-07T05:03:17.445Z,980.00
2018-07-07T05:04:17.435Z,980.00
2018-07-07T05:05:17.397Z,980.00
2018-07-07T05:06:17.392Z,984.00
2018-07-07T05:07:17.379Z,992.00
2018-07-07T05:08:17.373Z,1004.00
2018-07-07T05:09:17.355Z,996.00
2018-07-07T05:10:17.369Z,1004.00
2018-07-07T05:11:17.324Z,1004.00
2018-07-07T05:12:17.322Z,1004.00
2018-07-07T05:13:17.326Z,1028.00
2018-07-07T05:14:17.296Z,1032.00
2018-07-07T05:15:17.289Z,1040.00
2018-07-07T05:16:17.286Z,1044.00
2018-07-07T05:17:17.384Z,1044.00
2018-07-07T05:18:17.245Z,1048.00
2018-07-07T05:19:17.261Z,1052.00
2018-07-07T05:20:17.226Z,1060.00
2018-07-07T05:21:17.209Z,1060.00
2018-07-07T05:22:17.217Z,1068.00
2018-07-07T05:23:18.039Z,1076.00
2018-07-07T05:24:17.177Z,1080.00
2018-07-07T05:25:17.176Z,1088.00
2018-07-07T05:26:17.158Z,1112.00
2018-07-07T05:27:17.163Z,1128.00
2018-07-07T05:28:17.129Z,1136.00
2018-07-07T05:29:17.123Z,1144.00
2018-07-07T05:30:17.121Z,1152.00
2018-07-07T05:31:17.107Z,1152.00
2018-07-07T05:32:17.089Z,1156.00
2018-07-07T05:33:17.096Z,1168.00
2018-07-07T05:34:17.065Z,1200.00
2018-07-07T05:35:17.082Z,1204.00
2018-07-07T05:36:17.042Z,1212.00
2018-07-07T05:37:17.102Z,1220.00
2018-07-07T05:38:17.020Z,1224.00
2018-07-07T05:39:17.031Z,1232.00
2018-07-07T05:40:16.997Z,1272.00
2018-07-07T05:41:17.015Z,1316.00
2018-07-07T05:42:16.981Z,1344.00
2018-07-07T05:43:16.964Z,1360.00
2018-07-07T05:44:16.951Z,1380.00
2018-07-07T05:45:16.952Z,1376.00
2018-07-07T05:46:16.931Z,1384.00
2018-07-07T05:47:16.929Z,1412.00
2018-07-07T05:48:16.901Z,1424.00
2018-07-07T05:49:16.893Z,1420.00
2018-07-07T05:50:16.882Z,1388.00
2018-07-07T05:51:16.893Z,1356.00
2018-07-07T05:52:16.871Z,1332.00
2018-07-07T05:53:16.845Z,1328.00
2018-07-07T05:54:16.833Z,1316.00
2018-07-07T05:55:16.821Z,1324.00
2018-07-07T05:56:16.817Z,1364.00
2018-07-07T05:57:16.835Z,1416.00
2018-07-07T05:58:16.794Z,1440.00
2018-07-07T05:59:16.782Z,1456.00
2018-07-07T06:00:16.768Z,1496.00
2018-07-07T06:01:16.761Z,1544.00
2018-07-07T06:02:16.772Z,1548.00
2018-07-07T06:03:16.741Z,1532.00
2018-07-07T06:04:16.724Z,1524.00
2018-07-07T06:05:16.715Z,1488.00
2018-07-07T06:06:16.703Z,1472.00
2018-07-07T06:07:16.690Z,1444.00
2018-07-07T06:08:16.692Z,1404.00
2018-07-07T06:09:16.684Z,1396.00
2018-07-07T06:10:16.652Z,1380.00
2018-07-07T06:11:16.646Z,1412.00
2018-07-07T06:12:16.635Z,1412.00
2018-07-07T06:13:16.647Z,1472.00
2018-07-07T06:14:16.661Z,1492.00
2018-07-07T06:15:16.621Z,1500.00
2018-07-07T06:16:16.592Z,1524.00
2018-07-07T06:17:16.581Z,1560.00
2018-07-07T06:18:16.606Z,1592.00
2018-07-07T06:19:16.585Z,1576.00
2018-07-07T06:20:16.545Z,1592.00
2018-07-07T06:21:16.546Z,1600.00
2018-07-07T06:22:16.537Z,1604.00
2018-07-07T06:23:16.516Z,1624.00
2018-07-07T06:24:16.503Z,1648.00
2018-07-07T06:25:16.498Z,1680.00
2018-07-07T06:26:16.480Z,1720.00
2018-07-07T06:27:16.478Z,1788.00
2018-07-07T06:28:16.458Z,1852.00
2018-07-07T06:29:16.441Z,1884.00
2018-07-07T06:30:16.447Z,1872.00
2018-07-07T06:31:16.424Z,1872.00
2018-07-07T06:32:16.413Z,1888.00
2018-07-07T06:33:16.416Z,1880.00
2018-07-07T06:34:16.389Z,1888.00
2018-07-07T06:35:16.406Z,1904.00
2018-07-07T06:36:16.365Z,1884.00
2018-07-07T06:37:16.356Z,1884.00
2018-07-07T06:38:16.344Z,1888.00
2018-07-07T06:39:16.343Z,1936.00
2018-07-07T06:40:16.322Z,1948.00
2018-07-07T06:41:16.341Z,1972.00
2018-07-07T06:42:16.301Z,1952.00
2018-07-07T06:43:16.287Z,1920.00
2018-07-07T06:44:16.277Z,1836.00
2018-07-07T06:45:16.276Z,1800.00
2018-07-07T06:46:16.255Z,1932.00
2018-07-07T06:47:16.261Z,2192.00
2018-07-07T06:48:16.230Z,2444.00
2018-07-07T06:49:16.225Z,2436.00
2018-07-07T06:50:16.212Z,2136.00
2018-07-07T06:51:16.223Z,2168.00
2018-07-07T06:52:16.195Z,2392.00
2018-07-07T06:53:16.173Z,2420.00
2018-07-07T06:54:16.163Z,2440.00
2018-07-07T06:55:16.151Z,2396.00
2018-07-07T06:56:16.143Z,2324.00
2018-07-07T06:57:16.174Z,2396.00
2018-07-07T06:58:16.125Z,2492.00
2018-07-07T06:59:16.110Z,2500.00
2018-07-07T07:00:16.102Z,2500.00
2018-07-07T07:01:16.090Z,2528.00
2018-07-07T07:02:16.078Z,2548.00
2018-07-07T07:03:16.119Z,2540.00
2018-07-07T07:04:16.053Z,2548.00
2018-07-07T07:05:16.043Z,2580.00
2018-07-07T07:06:16.030Z,2656.00
2018-07-07T07:07:16.020Z,2728.00
2018-07-07T07:08:16.007Z,2780.00
2018-07-07T07:09:16.046Z,2804.00
2018-07-07T07:10:15.987Z,2792.00
2018-07-07T07:11:15.977Z,2744.00
2018-07-07T07:12:15.959Z,2704.00
2018-07-07T07:13:15.950Z,2648.00
2018-07-07T07:14:15.961Z,2528.00
2018-07-07T07:15:15.953Z,2588.00
2018-07-07T07:16:15.919Z,2704.00
2018-07-07T07:17:15.903Z,2592.00
2018-07-07T07:18:15.895Z,2484.00
2018-07-07T07:19:15.887Z,2400.00
2018-07-07T07:20:15.891Z,2512.00
2018-07-07T07:21:15.875Z,2732.00
2018-07-07T07:22:15.848Z,2804.00
2018-07-07T07:23:15.839Z,2820.00
2018-07-07T07:24:15.834Z,2836.00
2018-07-07T07:25:15.847Z,2824.00
2018-07-07T07:26:15.841Z,2800.00
2018-07-07T07:27:15.823Z,2772.00
2018-07-07T07:28:15.784Z,2772.00
2018-07-07T07:29:15.778Z,2772.00
2018-07-07T07:30:15.767Z,2772.00
2018-07-07T07:31:15.769Z,2752.00
2018-07-07T07:32:15.739Z,2748.00
2018-07-07T07:33:15.744Z,2732.00
2018-07-07T07:34:15.716Z,2748.00
2018-07-07T07:35:15.705Z,2736.00
2018-07-07T07:36:15.695Z,2716.00
2018-07-07T07:37:15.698Z,2672.00
2018-07-07T07:38:15.667Z,2616.00
2018-07-07T07:39:15.672Z,2560.00
2018-07-07T07:40:15.655Z,2520.00
2018-07-07T07:41:15.637Z,2488.00
2018-07-07T07:42:15.646Z,2460.00
2018-07-07T07:43:15.709Z,2456.00
2018-07-07T07:44:15.604Z,2468.00
2018-07-07T07:45:15.605Z,2464.00
2018-07-07T07:46:15.584Z,2460.00
2018-07-07T07:47:15.614Z,2428.00
2018-07-07T07:48:15.563Z,2416.00
2018-07-07T07:49:15.557Z,2404.00
2018-07-07T07:50:15.535Z,2380.00
2018-07-07T07:51:15.540Z,2360.00
2018-07-07T07:52:15.518Z,2340.00
2018-07-07T07:53:15.534Z,2324.00
2018-07-07T07:54:15.492Z,2324.00
2018-07-07T07:55:15.484Z,2292.00
2018-07-07T07:56:15.474Z,2272.00
2018-07-07T07:57:15.487Z,2216.00
2018-07-07T07:58:15.459Z,2176.00
2018-07-07T07:59:15.451Z,2148.00
2018-07-07T08:00:15.435Z,2112.00
2018-07-07T08:01:15.434Z,2084.00
2018-07-07T08:02:15.401Z,2136.00
2018-07-07T08:03:15.398Z,2168.00
2018-07-07T08:04:15.418Z,2200.00
2018-07-07T08:05:15.381Z,2212.00
2018-07-07T08:06:15.366Z,2212.00
2018-07-07T08:07:15.349Z,2204.00
2018-07-07T08:08:15.354Z,2188.00
2018-07-07T08:09:15.366Z,2176.00
2018-07-07T08:10:15.335Z,2180.00
2018-07-07T08:11:15.314Z,2196.00
2018-07-07T08:12:15.294Z,2204.00
2018-07-07T08:13:15.284Z,2220.00
2018-07-07T08:14:15.293Z,2252.00
2018-07-07T08:15:15.339Z,2276.00
2018-07-07T08:16:15.249Z,2288.00
2018-07-07T08:17:15.235Z,2304.00
2018-07-07T08:18:15.222Z,2312.00
2018-07-07T08:19:15.218Z,2316.00
2018-07-07T08:20:15.204Z,2304.00
2018-07-07T08:21:15.227Z,2304.00
2018-07-07T08:22:15.177Z,2304.00
2018-07-07T08:23:15.170Z,2276.00
2018-07-07T08:24:15.161Z,2248.00
2018-07-07T08:25:15.150Z,2188.00
2018-07-07T08:26:15.161Z,2164.00
2018-07-07T08:27:15.142Z,2144.00
2018-07-07T08:28:15.117Z,2164.00
2018-07-07T08:29:15.107Z,2168.00
2018-07-07T08:30:15.094Z,2164.00
2018-07-07T08:31:15.075Z,2152.00
2018-07-07T08:32:15.096Z,2132.00
2018-07-07T08:33:15.081Z,2116.00
2018-07-07T08:34:15.050Z,2124.00
2018-07-07T08:35:15.043Z,2144.00
2018-07-07T08:36:15.034Z,2156.00
2018-07-07T08:37:15.014Z,2160.00
2018-07-07T08:38:15.017Z,2180.00
2018-07-07T08:39:15.010Z,2108.00
2018-07-07T08:40:14.986Z,2196.00
2018-07-07T08:41:14.971Z,2168.00
2018-07-07T08:42:15.034Z,2136.00
2018-07-07T08:43:14.961Z,2140.00
2018-07-07T08:44:14.940Z,2152.00
2018-07-07T08:45:14.954Z,2152.00
2018-07-07T08:46:14.922Z,2212.00
2018-07-07T08:47:14.912Z,2200.00
2018-07-07T08:48:14.894Z,2268.00
2018-07-07T08:49:14.951Z,2260.00
2018-07-07T08:50:14.879Z,2348.00
2018-07-07T08:51:14.873Z,2352.00
2018-07-07T08:52:14.847Z,2352.00
2018-07-07T08:53:14.836Z,2068.00
2018-07-07T08:54:14.824Z,1664.00
2018-07-07T08:55:14.830Z,1460.00
2018-07-07T08:56:14.806Z,1540.00
2018-07-07T08:57:14.812Z,1448.00
2018-07-07T08:58:14.781Z,1512.00
2018-07-07T08:59:14.770Z,1764.00
2018-07-07T09:00:14.771Z,1476.00
2018-07-07T09:01:14.754Z,1532.00
2018-07-07T09:02:14.786Z,1480.00
2018-07-07T09:03:14.738Z,1624.00
2018-07-07T09:04:14.721Z,1856.00
2018-07-07T09:05:14.731Z,2148.00
2018-07-07T09:06:14.698Z,2428.00
2018-07-07T09:07:14.676Z,2440.00
2018-07-07T09:08:14.674Z,2456.00
2018-07-07T09:09:14.708Z,2432.00
2018-07-07T09:10:14.651Z,2344.00
2018-07-07T09:11:14.760Z,2596.00
2018-07-07T09:12:14.629Z,2584.00
2018-07-07T09:13:14.617Z,2572.00
2018-07-07T09:14:14.613Z,2560.00
2018-07-07T09:15:14.611Z,2568.00
2018-07-07T09:16:14.592Z,2536.00
2018-07-07T09:17:14.589Z,2516.00
2018-07-07T09:18:14.563Z,2444.00
2018-07-07T09:19:14.550Z,2484.00
2018-07-07T09:20:14.535Z,2476.00
2018-07-07T09:21:14.586Z,2468.00
2018-07-07T09:22:14.509Z,2416.00
2018-07-07T09:23:14.505Z,2388.00
2018-07-07T09:24:14.491Z,2432.00
2018-07-07T09:25:14.483Z,2456.00
2018-07-07T09:26:14.496Z,2448.00
2018-07-07T09:27:14.477Z,2460.00
2018-07-07T09:28:14.452Z,2464.00
2018-07-07T09:29:14.435Z,2432.00
2018-07-07T09:30:14.434Z,2444.00
2018-07-07T09:31:14.418Z,2264.00
2018-07-07T09:32:14.431Z,2212.00
2018-07-07T09:33:14.419Z,2152.00
2018-07-07T09:34:14.394Z,2240.00
2018-07-07T09:35:14.366Z,2148.00
2018-07-07T09:36:14.360Z,2016.00
2018-07-07T09:37:14.380Z,2096.00
2018-07-07T09:38:14.356Z,2132.00
2018-07-07T09:39:14.331Z,2232.00
2018-07-07T09:40:14.342Z,2360.00
2018-07-07T09:41:14.305Z,2396.00
2018-07-07T09:42:14.293Z,2436.00
2018-07-07T09:43:14.297Z,2392.00
2018-07-07T09:44:14.286Z,2384.00
2018-07-07T09:45:14.271Z,2520.00
2018-07-07T09:46:14.263Z,2408.00
2018-07-07T09:47:14.243Z,2596.00
2018-07-07T09:48:14.248Z,2572.00
2018-07-07T09:49:14.217Z,2560.00
2018-07-07T09:50:14.205Z,2528.00
2018-07-07T09:51:14.191Z,2548.00
2018-07-07T09:52:14.209Z,2548.00
2018-07-07T09:53:14.186Z,2540.00
2018-07-07T09:54:14.165Z,2520.00
2018-07-07T09:55:14.146Z,2472.00
2018-07-07T09:56:14.140Z,2464.00
2018-07-07T09:57:14.262Z,2424.00
2018-07-07T09:58:14.396Z,2384.00
2018-07-07T09:59:15.064Z,2384.00
2018-07-07T10:00:14.096Z,2360.00
2018-07-07T10:01:14.089Z,2348.00
2018-07-07T10:02:14.083Z,2372.00
2018-07-07T10:03:14.095Z,2388.00
2018-07-07T10:04:14.046Z,2376.00
2018-07-07T10:05:14.039Z,2356.00
2018-07-07T10:06:14.033Z,2360.00
2018-07-07T10:07:14.016Z,2352.00
2018-07-07T10:08:14.023Z,2360.00
2018-07-07T10:09:14.028Z,2340.00
2018-07-07T10:10:13.976Z,2344.00
2018-07-07T10:11:13.975Z,2340.00
2018-07-07T10:12:13.969Z,2328.00
2018-07-07T10:13:13.953Z,2312.00
2018-07-07T10:14:13.959Z,2296.00
2018-07-07T10:15:13.944Z,2292.00
2018-07-07T10:16:13.917Z,2288.00
2018-07-07T10:17:13.907Z,2264.00
2018-07-07T10:18:13.900Z,2260.00
2018-07-07T10:19:13.893Z,2236.00
2018-07-07T10:20:13.888Z,2248.00
2018-07-07T10:21:13.878Z,2232.00
2018-07-07T10:22:13.853Z,2216.00
2018-07-07T10:23:13.842Z,2160.00
2018-07-07T10:24:13.835Z,2176.00
2018-07-07T10:25:13.837Z,2168.00
2018-07-07T10:26:13.860Z,2152.00
2018-07-07T10:27:13.805Z,2140.00
2018-07-07T10:28:13.787Z,2140.00
2018-07-07T10:29:13.772Z,2132.00
2018-07-07T10:30:13.772Z,2140.00
2018-07-07T10:31:13.746Z,2136.00
2018-07-07T10:32:13.735Z,2116.00
2018-07-07T10:33:13.748Z,2128.00
2018-07-07T10:34:13.717Z,2128.00
2018-07-07T10:35:13.720Z,2124.00
2018-07-07T10:36:13.695Z,2112.00
2018-07-07T10:37:13.681Z,2116.00
2018-07-07T10:38:13.716Z,2132.00
2018-07-07T10:39:13.670Z,2132.00
2018-07-07T10:40:13.673Z,2132.00
2018-07-07T10:41:13.640Z,2112.00
2018-07-07T10:42:13.643Z,2136.00
2018-07-07T10:43:13.620Z,2140.00
2018-07-07T10:44:13.609Z,2144.00
2018-07-07T10:45:13.634Z,2136.00
2018-07-07T10:46:13.667Z,2148.00
2018-07-07T10:47:13.576Z,2152.00
2018-07-07T10:48:13.567Z,2152.00
2018-07-07T10:49:13.549Z,2152.00
2018-07-07T10:50:13.556Z,2160.00
2018-07-07T10:51:13.543Z,2164.00
2018-07-07T10:52:13.520Z,2168.00
2018-07-07T10:53:13.506Z,2168.00
2018-07-07T10:54:13.504Z,2184.00
2018-07-07T10:55:13.498Z,2176.00
2018-07-07T10:56:13.480Z,2184.00
2018-07-07T10:57:13.487Z,2188.00
2018-07-07T10:58:13.452Z,2192.00
2018-07-07T10:59:13.448Z,2200.00
2018-07-07T11:00:13.450Z,2192.00
2018-07-07T11:01:13.420Z,2196.00
2018-07-07T11:02:13.407Z,2204.00
2018-07-07T11:03:13.418Z,2208.00
2018-07-07T11:04:13.429Z,2216.00
2018-07-07T11:05:13.385Z,2220.00
2018-07-07T11:06:13.363Z,2228.00
2018-07-07T11:07:13.349Z,2232.00
2018-07-07T11:08:13.344Z,2240.00
2018-07-07T11:09:13.363Z,2252.00
2018-07-07T11:10:13.330Z,2248.00
2018-07-07T11:11:13.311Z,2256.00
2018-07-07T11:12:13.296Z,2260.00
2018-07-07T11:13:13.286Z,2264.00
2018-07-07T11:14:13.266Z,2264.00
2018-07-07T11:15:13.300Z,2276.00
2018-07-07T11:16:13.243Z,2276.00
2018-07-07T11:17:13.236Z,2284.00
2018-07-07T11:18:13.230Z,2276.00
2018-07-07T11:19:13.220Z,2268.00
2018-07-07T11:20:13.220Z,2284.00
2018-07-07T11:21:13.215Z,2296.00
2018-07-07T11:22:13.187Z,2304.00
2018-07-07T11:23:13.176Z,2320.00
2018-07-07T11:24:13.166Z,2340.00
2018-07-07T11:25:13.185Z,2372.00
2018-07-07T11:26:14.115Z,2384.00
2018-07-07T11:27:13.162Z,2400.00
2018-07-07T11:28:13.119Z,2420.00
2018-07-07T11:29:13.110Z,2440.00
2018-07-07T11:30:13.107Z,2476.00
2018-07-07T11:31:13.082Z,2512.00
2018-07-07T11:32:13.076Z,2576.00
2018-07-07T11:33:13.074Z,2636.00
2018-07-07T11:34:13.063Z,2716.00
2018-07-07T11:35:13.051Z,2784.00
2018-07-07T11:36:13.078Z,2876.00
2018-07-07T11:37:13.025Z,2948.00
2018-07-07T11:38:13.004Z,2992.00
2018-07-07T11:39:13.009Z,3084.00
2018-07-07T11:40:12.995Z,3160.00
2018-07-07T11:41:12.977Z,3228.00
2018-07-07T11:42:13.016Z,3336.00
2018-07-07T11:43:12.961Z,3420.00
2018-07-07T11:44:12.942Z,3256.00
2018-07-07T11:45:12.972Z,3616.00
2018-07-07T11:46:12.919Z,3632.00
2018-07-07T11:47:12.917Z,3752.00
2018-07-07T11:48:12.898Z,3684.00
2018-07-07T11:49:12.889Z,3816.00
2018-07-07T11:50:12.921Z,3620.00
2018-07-07T11:51:12.902Z,3812.00
2018-07-07T11:52:12.851Z,4208.00
2018-07-07T11:53:12.844Z,4112.00
2018-07-07T11:54:12.830Z,3944.00
2018-07-07T11:55:12.828Z,4436.00
2018-07-07T11:56:12.823Z,4556.00
2018-07-07T11:57:12.852Z,4724.00
2018-07-07T11:58:12.791Z,3504.00
2018-07-07T11:59:12.780Z,4116.00
2018-07-07T12:00:12.768Z,3276.00
2018-07-07T12:01:12.772Z,3968.00
2018-07-07T12:02:12.745Z,4056.00
2018-07-07T12:03:12.769Z,4456.00
2018-07-07T12:04:12.725Z,4372.00
2018-07-07T12:05:12.717Z,3608.00
2018-07-07T12:06:12.716Z,4020.00
2018-07-07T12:07:12.699Z,4944.00
2018-07-07T12:08:14.253Z,4732.00
2018-07-07T12:09:12.690Z,3748.00
2018-07-07T12:10:12.667Z,4312.00
2018-07-07T12:11:13.181Z,4668.00
2018-07-07T12:12:12.642Z,3616.00
2018-07-07T12:13:12.631Z,4368.00
2018-07-07T12:14:12.613Z,4228.00
2018-07-07T12:15:12.684Z,4056.00
2018-07-07T12:16:12.625Z,3672.00
2018-07-07T12:17:12.595Z,3104.00
2018-07-07T12:18:12.586Z,3676.00
2018-07-07T12:19:12.569Z,3980.00
2018-07-07T12:20:12.563Z,3484.00
2018-07-07T12:21:12.604Z,3864.00
2018-07-07T12:22:12.543Z,3996.00
2018-07-07T12:23:12.598Z,3664.00
2018-07-07T12:24:12.522Z,4100.00
2018-07-07T12:25:12.504Z,4236.00